Time;durP1;ratioP1;P1;durP2;ratioP2;P2;SDS_P1;SDS_P2;PMS_P1;PMS_P2;Temp;Humidity;BMP_temperature;BMP_pressure;BME280_temperature;BME280_humidity;BME280_pressure;Samples;Min_cycle;Max_cycle;Signal;HPM_P1;HPM_P2
2021/10/17 00:01:23;;;;;;;14.45;4.80;;;;;;;-142.75;91.08;77783.06;5039948;22;20051;-68
2021/10/17 00:03:49;;;;;;;13.65;5.55;;;;;;;-142.75;91.75;77783.06;5029351;28;20028;-67
2021/10/17 00:06:16;;;;;;;12.10;4.83;;;;;;;-142.75;91.21;77783.06;5030864;28;20022;-69
2021/10/17 00:08:41;;;;;;;11.52;4.95;;;;;;;-142.75;90.80;77796.84;5031452;28;20322;-69
2021/10/17 00:11:06;;;;;;;10.48;4.68;;;;;;;-142.75;89.83;77792.91;5031486;28;20025;-69
2021/10/17 00:13:31;;;;;;;14.88;5.57;;;;;;;-142.75;89.34;77787.00;5031356;28;20072;-69
2021/10/17 00:15:57;;;;;;;18.77;5.40;;;;;;;-142.75;90.09;77798.81;5013002;28;20029;-68
2021/10/17 00:18:22;;;;;;;15.13;5.18;;;;;;;-142.75;90.96;77783.06;5031335;28;20036;-69
2021/10/17 00:20:47;;;;;;;13.73;4.88;;;;;;;-142.75;90.74;77790.94;5013517;28;20053;-69
2021/10/17 00:23:13;;;;;;;11.88;4.63;;;;;;;-142.75;90.86;77790.94;5031294;28;20104;-68
2021/10/17 00:25:38;;;;;;;12.27;4.80;;;;;;;-142.75;90.19;77790.94;5030974;28;20104;-68
2021/10/17 00:28:03;;;;;;;13.05;5.15;;;;;;;-142.75;89.90;77787.00;5013530;28;20495;-68
2021/10/17 00:30:29;;;;;;;9.32;4.78;;;;;;;-142.75;91.04;77790.94;5031211;28;20037;-68
2021/10/17 00:32:55;;;;;;;11.82;5.35;;;;;;;-142.75;92.71;77787.00;5013161;28;20104;-68
2021/10/17 00:35:20;;;;;;;;;;;;;;;-142.75;92.73;77779.13;5030940;28;20096;-69
2021/10/17 00:37:46;;;;;;;16.02;4.82;;;;;;;-142.75;92.46;77773.22;5031009;28;19920;-68
2021/10/17 00:40:15;;;;;;;8.88;4.53;;;;;;;-142.75;92.07;77769.28;5031073;28;20112;-68
2021/10/17 00:42:42;;;;;;;13.45;4.72;;;;;;;-142.75;93.07;77779.13;5030926;28;20029;-69
2021/10/17 00:45:14;;;;;;;12.90;4.80;;;;;;;-142.75;94.60;77783.06;5030607;28;20451;-69
2021/10/17 00:47:40;;;;;;;12.18;5.22;;;;;;;-142.75;95.79;77790.94;5013207;28;20025;-68
2021/10/17 00:50:06;;;;;;;;;;;;;;;-142.75;94.51;77779.13;5031366;28;20181;-68
2021/10/17 00:52:31;;;;;;;13.73;4.72;;;;;;;-142.75;93.66;77777.16;5012996;28;20456;-68
2021/10/17 00:54:57;;;;;;;11.73;4.93;;;;;;;-142.75;93.55;77773.22;5012879;28;20021;-68
2021/10/17 00:57:22;;;;;;;14.30;5.25;;;;;;;-142.75;92.61;77765.34;5030799;28;20088;-68
2021/10/17 00:59:48;;;;;;;13.85;4.95;;;;;;;-142.75;94.05;77763.38;5013041;28;20045;-68
2021/10/17 01:02:14;;;;;;;11.98;5.10;;;;;;;-142.75;95.16;77777.16;5030503;28;20036;-69
2021/10/17 01:04:39;;;;;;;14.10;5.53;;;;;;;-142.75;95.17;77777.16;5012699;28;20025;-68
2021/10/17 01:07:06;;;;;;;12.38;4.70;;;;;;;-142.75;96.00;77773.22;5030677;28;20033;-68
2021/10/17 01:09:37;;;;;;;14.02;4.50;;;;;;;-142.75;96.32;77765.34;5030724;28;20030;-68
2021/10/17 01:12:04;;;;;;;13.18;5.15;;;;;;;-142.75;96.38;77765.34;5030628;28;20063;-68
2021/10/17 01:14:29;;;;;;;15.02;4.57;;;;;;;-142.75;94.86;77765.34;5030097;28;20491;-69
2021/10/17 01:16:55;;;;;;;11.57;4.32;;;;;;;-142.75;92.84;77777.16;5030555;28;20029;-68
2021/10/17 01:19:21;;;;;;;11.05;4.57;;;;;;;-142.75;92.98;77759.44;5041696;28;20051;-68
2021/10/17 01:21:47;;;;;;;;;;;;;;;-142.75;93.08;77761.41;5050844;28;20021;-69
2021/10/17 01:24:13;;;;;;;10.67;4.87;;;;;;;-142.75;92.84;77765.34;5032202;28;19928;-68
2021/10/17 01:26:40;;;;;;;20.25;5.68;;;;;;;-142.75;93.61;77769.28;5050410;28;20021;-68
2021/10/17 01:29:05;;;;;;;;;;;;;;;-142.75;93.84;77755.50;5032854;28;20032;-68
2021/10/17 01:31:46;;;;;;;17.20;5.75;;;;;;;-142.75;93.44;77761.41;5032257;28;20374;-68
2021/10/17 01:34:12;;;;;;;16.60;5.45;;;;;;;-142.75;92.64;77767.31;5050024;28;20021;-69
2021/10/17 01:36:38;;;;;;;;;;;;;;;-142.75;92.61;77765.34;5050938;28;20681;-68
2021/10/17 01:39:05;;;;;;;19.63;6.38;;;;;;;-142.75;91.55;77763.38;5032472;28;19924;-68
2021/10/17 01:41:30;;;;;;;12.95;5.90;;;;;;;-142.75;91.14;77763.38;5032154;28;20052;-68
2021/10/17 01:44:09;;;;;;;15.02;5.65;;;;;;;-142.75;91.07;77767.31;5031339;28;20166;-68
2021/10/17 01:46:35;;;;;;;17.42;5.88;;;;;;;-142.75;91.10;77775.19;5032337;28;20032;-68
2021/10/17 01:49:01;;;;;;;10.43;4.90;;;;;;;-142.75;92.02;77771.25;5034273;28;20029;-68
2021/10/17 01:51:27;;;;;;;11.77;6.00;;;;;;;-142.75;93.47;77771.25;5034074;28;20160;-68
2021/10/17 01:53:52;;;;;;;12.57;5.35;;;;;;;-142.75;93.79;77779.13;5033616;28;20508;-68
2021/10/17 01:56:17;;;;;;;13.98;5.70;;;;;;;-142.75;94.10;77781.09;5016208;28;20021;-68
2021/10/17 01:58:43;;;;;;;18.38;5.72;;;;;;;-142.75;93.53;77788.97;5034044;28;20508;-68
2021/10/17 02:01:08;;;;;;;15.50;5.80;;;;;;;-142.75;93.80;77783.06;5033979;28;20112;-68
2021/10/17 02:03:33;;;;;;;15.55;6.03;;;;;;;-142.75;94.09;77767.31;5033982;28;20024;-68
2021/10/17 02:05:59;;;;;;;14.07;5.90;;;;;;;-142.75;93.97;77771.25;5033691;28;20399;-68
2021/10/17 02:08:24;;;;;;;12.23;6.10;;;;;;;-142.75;92.85;77785.03;5033770;28;20639;-68
2021/10/17 02:10:49;;;;;;;16.53;6.30;;;;;;;-142.75;93.99;77779.13;5033678;28;20033;-68
2021/10/17 02:13:15;;;;;;;11.63;6.28;;;;;;;-142.75;94.37;77779.13;5015905;28;20021;-70
2021/10/17 02:15:40;;;;;;;15.57;6.68;;;;;;;-142.75;95.07;77785.03;5041173;28;20036;-71
2021/10/17 02:18:06;;;;;;;17.35;6.43;;;;;;;-142.75;95.40;77783.06;5049305;28;20471;-70
2021/10/17 02:20:34;;;;;;;12.83;6.53;;;;;;;-142.75;94.74;77790.94;5033831;28;20099;-71
2021/10/17 02:23:01;;;;;;;18.88;6.95;;;;;;;-142.75;94.53;77794.88;5033380;28;20275;-70
2021/10/17 02:25:27;;;;;;;15.25;5.82;;;;;;;-142.75;95.44;77787.00;5033296;28;20069;-70
2021/10/17 02:27:52;;;;;;;12.60;5.95;;;;;;;-142.75;96.45;77781.09;5033422;28;20104;-70
2021/10/17 02:30:17;;;;;;;16.10;6.97;;;;;;;-142.75;96.71;77775.19;5033428;28;20022;-70
2021/10/17 02:32:43;;;;;;;15.63;7.85;;;;;;;-142.75;97.60;77767.31;5033243;28;20029;-70
2021/10/17 02:35:08;;;;;;;13.88;6.63;;;;;;;-142.75;97.63;77773.22;5033009;28;20071;-70
2021/10/17 02:37:34;;;;;;;13.55;7.30;;;;;;;-142.75;96.67;77785.03;5033328;28;20033;-71
2021/10/17 02:39:59;;;;;;;15.82;8.02;;;;;;;-142.75;96.69;77792.91;5015395;28;20074;-69
2021/10/17 02:42:25;;;;;;;15.10;6.88;;;;;;;-142.75;95.58;77798.81;5033177;28;20457;-71
2021/10/17 02:44:50;;;;;;;13.38;6.70;;;;;;;-142.75;97.03;77798.81;5014977;28;20026;-70
2021/10/17 02:47:15;;;;;;;15.57;7.20;;;;;;;-142.75;97.37;77790.94;5033185;28;20025;-70
2021/10/17 02:49:40;;;;;;;15.87;7.80;;;;;;;-142.75;97.45;77790.94;5015258;28;20310;-70
2021/10/17 02:52:06;;;;;;;17.77;6.90;;;;;;;-142.75;98.97;77787.00;5032993;28;20275;-70
2021/10/17 02:54:31;;;;;;;20.33;7.25;;;;;;;-142.75;100.00;77792.91;5032463;28;21000;-70
2021/10/17 02:56:56;;;;;;;17.42;7.47;;;;;;;-142.75;100.00;77792.91;5032585;28;20028;-71
2021/10/17 02:59:22;;;;;;;13.55;7.03;;;;;;;-142.75;98.19;77785.03;5032897;28;20041;-70
2021/10/17 03:01:47;;;;;;;25.67;7.30;;;;;;;-142.75;96.40;77794.88;5032612;28;20056;-70
2021/10/17 03:04:12;;;;;;;19.27;6.87;;;;;;;-142.75;96.19;77775.19;5032552;28;20784;-68
2021/10/17 03:06:38;;;;;;;13.95;7.28;;;;;;;-142.75;97.69;77773.22;5032680;28;20280;-68
2021/10/17 03:09:03;;;;;;;20.75;6.97;;;;;;;-142.75;98.49;77765.34;5032659;28;20025;-68
2021/10/17 03:11:29;;;;;;;17.90;7.18;;;;;;;-142.75;99.26;77759.44;5014758;28;20030;-68
2021/10/17 03:13:54;;;;;;;18.25;7.47;;;;;;;-142.75;99.59;77751.56;5032153;28;20029;-68
2021/10/17 03:16:19;;;;;;;19.33;7.43;;;;;;;-142.75;99.36;77757.47;5032560;28;20091;-69
2021/10/17 03:18:45;;;;;;;14.18;6.93;;;;;;;-142.75;100.00;77767.31;5014722;28;20657;-68
2021/10/17 03:21:10;;;;;;;21.97;7.57;;;;;;;-142.75;100.00;77771.25;5014672;28;20033;-71
2021/10/17 03:23:35;;;;;;;12.03;6.87;;;;;;;-142.75;99.44;77763.38;5030718;28;20288;-68
2021/10/17 03:26:00;;;;;;;17.65;7.70;;;;;;;-142.75;99.84;77759.44;5032113;28;20267;-68
2021/10/17 03:28:26;;;;;;;17.85;7.70;;;;;;;-142.75;99.72;77771.25;5032321;28;20402;-69
2021/10/17 03:30:52;;;;;;;19.58;7.28;;;;;;;-142.75;98.76;77783.06;5032247;28;20380;-69
2021/10/17 03:33:17;;;;;;;18.85;7.68;;;;;;;-142.75;98.07;77779.13;5032203;28;20078;-68
2021/10/17 03:35:43;;;;;;;18.80;7.93;;;;;;;-142.75;98.53;77785.03;5014144;28;20074;-69
2021/10/17 03:38:09;;;;;;;13.65;6.47;;;;;;;-142.75;98.19;77775.19;5032124;28;20040;-68
2021/10/17 03:40:34;;;;;;;24.02;7.80;;;;;;;-142.75;99.27;77781.09;5032099;28;20021;-69
2021/10/17 03:42:59;;;;;;;17.13;7.63;;;;;;;-142.75;100.00;77775.19;5032123;28;20033;-69
2021/10/17 03:45:25;;;;;;;18.80;8.45;;;;;;;-142.75;100.00;77790.94;5031670;28;20017;-68
2021/10/17 03:47:50;;;;;;;19.17;8.25;;;;;;;-142.75;100.00;77787.00;5031946;28;20033;-69
2021/10/17 03:50:15;;;;;;;16.08;7.47;;;;;;;-142.75;100.00;77783.06;5014142;28;20471;-69
2021/10/17 03:52:41;;;;;;;21.05;8.13;;;;;;;-142.75;100.00;77771.25;5013935;28;20479;-69
2021/10/17 03:55:07;;;;;;;15.77;7.45;;;;;;;-142.75;100.00;77769.28;5031490;28;20024;-69
2021/10/17 03:57:32;;;;;;;17.90;7.38;;;;;;;-142.75;100.00;77787.00;5031663;28;20029;-69
2021/10/17 03:59:57;;;;;;;19.47;8.07;;;;;;;-142.75;98.79;77775.19;5031729;28;20514;-69
2021/10/17 04:02:22;;;;;;;28.73;7.87;;;;;;;-142.75;99.01;77765.34;5031426;28;20276;-69
2021/10/17 04:04:48;;;;;;;23.40;8.10;;;;;;;-142.75;100.00;77779.13;5031418;28;20638;-69
2021/10/17 04:07:13;;;;;;;18.88;8.15;;;;;;;-142.75;100.00;77767.31;5031503;28;20268;-69
2021/10/17 04:09:38;;;;;;;19.17;8.02;;;;;;;-142.75;100.00;77761.41;5030922;28;20025;-69
2021/10/17 04:12:04;;;;;;;15.20;7.45;;;;;;;-142.75;100.00;77755.50;5031369;28;20029;-69
2021/10/17 04:14:29;;;;;;;21.25;7.95;;;;;;;-142.75;100.00;77763.38;5031053;28;20033;-69
2021/10/17 04:16:54;;;;;;;18.07;8.27;;;;;;;-142.75;100.00;77751.56;5031513;28;20105;-68
2021/10/17 04:19:20;;;;;;;17.30;7.63;;;;;;;-142.75;100.00;77741.72;5031314;28;20279;-69
2021/10/17 04:21:45;;;;;;;17.85;7.80;;;;;;;-142.75;100.00;77741.72;5031238;28;20827;-69
2021/10/17 04:24:10;;;;;;;19.10;7.47;;;;;;;-142.75;97.78;77755.50;5030840;28;20025;-69
2021/10/17 04:26:37;;;;;;;15.60;7.63;;;;;;;-142.75;96.67;77759.44;5031317;28;20029;-68
2021/10/17 04:29:02;;;;;;;;;;;;;;;-142.75;96.14;77755.50;5031567;28;20029;-69
2021/10/17 04:31:27;;;;;;;14.60;6.68;;;;;;;-142.75;95.89;77757.47;5031134;28;19912;-68
2021/10/17 04:33:53;;;;;;;21.50;7.85;;;;;;;-142.75;96.41;77763.38;5030822;28;20399;-69
2021/10/17 04:36:18;;;;;;;17.13;7.72;;;;;;;-142.75;96.98;77771.25;5031094;28;20032;-69
2021/10/17 04:38:43;;;;;;;20.05;7.88;;;;;;;-142.75;96.96;77777.16;5031045;28;20032;-69
2021/10/17 04:41:09;;;;;;;18.67;7.47;;;;;;;-142.75;97.07;77777.16;5013224;28;20021;-69
2021/10/17 04:43:35;;;;;;;17.43;8.07;;;;;;;-142.75;97.61;77777.16;5030863;28;20036;-68
2021/10/17 04:46:01;;;;;;;21.17;8.02;;;;;;;-142.75;96.62;77773.22;5012989;28;20272;-68
2021/10/17 04:48:27;;;;;;;19.27;8.20;;;;;;;-142.75;96.85;77769.28;5013178;28;20025;-69
2021/10/17 04:50:52;;;;;;;19.50;9.13;;;;;;;-142.75;96.69;77775.19;5030724;28;20083;-69
2021/10/17 04:53:17;;;;;;;18.95;8.43;;;;;;;-142.75;95.78;77767.31;5013110;28;20120;-69
2021/10/17 04:55:42;;;;;;;21.25;8.85;;;;;;;-142.75;96.22;77765.34;5030624;28;20034;-69
2021/10/17 04:58:08;;;;;;;24.38;9.75;;;;;;;-142.75;95.46;77767.31;5030723;28;20025;-69
2021/10/17 05:00:33;;;;;;;20.98;9.23;;;;;;;-142.75;95.15;77773.22;5030797;28;20033;-69
2021/10/17 05:02:59;;;;;;;21.17;9.48;;;;;;;-142.75;95.19;77771.25;5030533;28;20037;-70
2021/10/17 05:05:24;;;;;;;17.77;8.43;;;;;;;-142.75;95.84;77763.38;5030459;28;20022;-68
2021/10/17 05:07:50;;;;;;;26.15;9.50;;;;;;;-142.75;95.37;77769.28;5030558;28;20087;-69
2021/10/17 05:10:15;;;;;;;22.35;8.40;;;;;;;-142.75;95.50;77763.38;5012999;28;20033;-68
2021/10/17 05:12:40;;;;;;;25.23;8.23;;;;;;;-142.75;96.46;77759.44;5030738;28;20032;-69
2021/10/17 05:15:06;;;;;;;22.83;8.75;;;;;;;-142.75;97.21;77763.38;5030259;28;20029;-69
2021/10/17 05:17:31;;;;;;;20.25;7.85;;;;;;;-142.75;96.75;77759.44;5012980;28;20098;-69
2021/10/17 05:19:56;;;;;;;15.30;8.17;;;;;;;-142.75;97.33;77755.50;5031712;28;20036;-69
2021/10/17 05:22:22;;;;;;;16.43;7.97;;;;;;;-142.75;97.66;77761.41;5034520;28;20278;-69
2021/10/17 05:24:47;;;;;;;20.98;8.10;;;;;;;-142.75;96.43;77765.34;5034289;28;20271;-68
2021/10/17 05:27:12;;;;;;;17.85;7.43;;;;;;;-142.75;96.12;77767.31;5016836;28;20025;-69
2021/10/17 05:29:38;;;;;;;22.08;8.27;;;;;;;-142.75;94.22;77769.28;5034550;28;20037;-69
2021/10/17 05:32:03;;;;;;;18.33;7.88;;;;;;;-142.75;94.63;77763.38;5033067;28;20024;-69
2021/10/17 05:34:29;;;;;;;21.70;7.65;;;;;;;-142.75;94.18;77769.28;5034128;28;20079;-69
2021/10/17 05:36:54;;;;;;;16.17;7.70;;;;;;;-142.75;94.12;77767.31;5034348;28;20372;-68
2021/10/17 05:39:19;;;;;;;21.15;8.57;;;;;;;-142.75;93.98;77769.28;5034467;28;20022;-69
2021/10/17 05:41:44;;;;;;;19.07;7.73;;;;;;;-142.75;93.85;77773.22;5016392;28;20121;-68
2021/10/17 05:44:10;;;;;;;19.13;8.07;;;;;;;-142.75;95.16;77775.19;5034088;28;20264;-69
2021/10/17 05:46:35;;;;;;;21.67;8.33;;;;;;;-142.75;95.77;77779.13;5034270;28;20041;-69
2021/10/17 05:49:00;;;;;;;21.50;7.90;;;;;;;-142.75;96.47;77775.19;5016494;28;20279;-69
2021/10/17 05:51:26;;;;;;;14.88;8.13;;;;;;;-142.75;96.76;77771.25;5016325;28;20056;-68
2021/10/17 05:53:51;;;;;;;16.47;7.93;;;;;;;-142.75;96.64;77773.22;5033728;28;20025;-69
2021/10/17 05:56:16;;;;;;;19.73;8.00;;;;;;;-142.75;96.89;77771.25;5016393;28;20272;-69
2021/10/17 05:58:41;;;;;;;14.60;7.75;;;;;;;-142.75;96.25;77767.31;5034024;28;20443;-69
2021/10/17 06:01:07;;;;;;;19.23;8.35;;;;;;;-142.75;95.99;77767.31;5033883;28;20391;-69
2021/10/17 06:03:32;;;;;;;19.15;8.00;;;;;;;-142.75;95.59;77771.25;5034459;22;20132;-68
2021/10/17 06:06:01;;;;;;;23.45;8.35;;;;;;;-142.75;95.42;77771.25;5011775;28;20036;-68
2021/10/17 06:08:28;;;;;;;21.48;7.30;;;;;;;-142.75;95.25;77775.19;5029274;28;20032;-67
2021/10/17 06:10:54;;;;;;;18.45;8.35;;;;;;;-142.75;95.30;77769.28;5014068;28;20029;-68
2021/10/17 06:13:20;;;;;;;23.45;8.00;;;;;;;-142.75;95.48;77775.19;5013830;28;20115;-68
2021/10/17 06:15:45;;;;;;;15.85;7.43;;;;;;;-142.75;95.20;77779.13;5012572;28;20022;-68
2021/10/17 06:18:10;;;;;;;17.47;7.97;;;;;;;-142.75;95.84;77773.22;5013882;28;20022;-68
2021/10/17 06:20:35;;;;;;;16.60;7.83;;;;;;;-142.75;96.56;77779.13;5013907;28;20286;-67
2021/10/17 06:23:01;;;;;;;18.00;8.17;;;;;;;-142.75;97.90;77785.03;5013771;28;20287;-68
2021/10/17 06:25:28;;;;;;;18.17;8.18;;;;;;;-142.75;97.82;77787.00;5013453;28;20266;-67
2021/10/17 06:27:54;;;;;;;21.15;10.95;;;;;;;-142.75;98.21;77783.06;5013729;28;20040;-68
2021/10/17 06:30:19;;;;;;;18.95;9.13;;;;;;;-142.75;98.59;77779.13;5013789;28;20025;-69
2021/10/17 06:32:44;;;;;;;21.30;8.18;;;;;;;-142.75;97.14;77790.94;5011626;28;20022;-67
2021/10/17 06:35:13;;;;;;;19.50;7.60;;;;;;;-142.75;96.82;77787.00;5011859;28;20018;-68
2021/10/17 06:37:38;;;;;;;21.92;8.02;;;;;;;-142.75;97.34;77787.00;5013559;28;20557;-68
2021/10/17 06:40:04;;;;;;;17.65;7.45;;;;;;;-142.75;99.78;77787.00;5013509;28;20025;-68
2021/10/17 06:42:29;;;;;;;15.35;7.65;;;;;;;-142.75;100.00;77779.13;5013485;28;21341;-68
2021/10/17 06:44:54;;;;;;;19.00;8.57;;;;;;;-142.75;100.00;77787.00;5031575;28;20059;-68
2021/10/17 06:47:20;;;;;;;20.45;8.02;;;;;;;-142.75;98.45;77779.13;5033182;28;20025;-68
2021/10/17 06:49:45;;;;;;;16.47;7.43;;;;;;;-142.75;98.10;77769.28;5032957;28;20029;-68
2021/10/17 06:52:10;;;;;;;16.00;7.87;;;;;;;-142.75;99.43;77767.31;5032967;28;20692;-69
2021/10/17 06:54:36;;;;;;;16.75;8.18;;;;;;;-142.75;98.38;77769.28;5032567;28;20287;-67
2021/10/17 06:57:01;;;;;;;14.65;7.65;;;;;;;-142.75;97.18;77767.31;5032963;28;20025;-67
2021/10/17 06:59:26;;;;;;;20.40;7.95;;;;;;;-142.75;96.69;77757.47;5032976;28;20044;-68
2021/10/17 07:01:51;;;;;;;17.67;8.00;;;;;;;-142.75;96.94;77753.53;5032871;28;20108;-68
2021/10/17 07:04:17;;;;;;;19.65;8.10;;;;;;;-142.75;96.80;77749.59;5032509;28;20383;-67
2021/10/17 07:06:44;;;;;;;21.23;8.45;;;;;;;-142.75;96.86;77755.50;5032692;28;20029;-68
2021/10/17 07:09:10;;;;;;;22.90;9.30;;;;;;;-142.75;97.23;77751.56;5031401;28;20018;-68
2021/10/17 07:11:35;;;;;;;18.73;8.35;;;;;;;-142.75;96.80;77755.50;5032674;28;20025;-68
2021/10/17 07:14:00;;;;;;;19.53;7.83;;;;;;;-142.75;96.59;77759.44;5032351;28;20540;-68
2021/10/17 07:16:25;;;;;;;19.33;8.07;;;;;;;-142.75;96.85;77749.59;5032542;28;20275;-68
2021/10/17 07:18:51;;;;;;;17.00;7.72;;;;;;;-142.75;97.67;77747.63;5017416;28;20025;-67
2021/10/17 07:21:16;;;;;;;17.92;8.93;;;;;;;-142.75;98.55;77765.34;5012256;28;20030;-67
2021/10/17 07:23:41;;;;;;;23.58;8.50;;;;;;;-142.75;100.00;77763.38;5012065;28;20025;-68
2021/10/17 07:26:07;;;;;;;17.33;8.60;;;;;;;-142.75;100.00;77763.38;5012500;28;20033;-69
2021/10/17 07:28:32;;;;;;;22.00;7.88;;;;;;;-142.75;100.00;77765.34;5014335;28;20073;-68
2021/10/17 07:30:57;;;;;;;18.25;7.85;;;;;;;-142.75;100.00;77771.25;5032343;28;20029;-68
2021/10/17 07:33:22;;;;;;;21.00;9.03;;;;;;;-142.75;100.00;77761.41;5032105;28;20410;-68
2021/10/17 07:35:48;;;;;;;16.10;7.65;;;;;;;-142.75;100.00;77771.25;5031877;28;20282;-68
2021/10/17 07:38:13;;;;;;;21.23;8.23;;;;;;;-142.75;99.49;77779.13;5032213;28;20041;-67
2021/10/17 07:40:38;;;;;;;21.52;8.15;;;;;;;-142.75;100.00;77769.28;5032193;28;20037;-68
2021/10/17 07:43:04;;;;;;;19.47;8.67;;;;;;;-142.75;99.98;77771.25;5031305;28;20032;-67
2021/10/17 07:45:31;;;;;;;21.45;8.10;;;;;;;-142.75;100.00;77767.31;5031500;28;20268;-68
2021/10/17 07:47:56;;;;;;;21.98;8.40;;;;;;;-142.75;100.00;77763.38;5031999;28;20021;-69
2021/10/17 07:50:21;;;;;;;18.73;7.83;;;;;;;-142.75;100.00;77767.31;5031827;28;20125;-68
2021/10/17 07:52:47;;;;;;;21.15;9.18;;;;;;;-142.75;99.64;77771.25;5031793;28;20737;-68
2021/10/17 07:55:12;;;;;;;15.63;8.02;;;;;;;-142.75;99.31;77767.31;5031480;28;20472;-67
2021/10/17 07:57:45;;;;;;;19.77;8.45;;;;;;;-142.75;99.44;77763.38;5031863;28;20029;-68
2021/10/17 08:00:11;;;;;;;18.20;7.95;;;;;;;-142.75;99.88;77757.47;5030610;28;20051;-68
2021/10/17 08:02:36;;;;;;;17.75;8.60;;;;;;;-142.75;99.68;77761.41;5031371;28;20482;-68
2021/10/17 08:05:01;;;;;;;22.83;7.27;;;;;;;-142.75;99.35;77767.31;5031367;28;20026;-68
2021/10/17 08:07:26;;;;;;;21.02;8.88;;;;;;;-142.75;99.33;77755.50;5030306;28;20292;-68
2021/10/17 08:09:52;;;;;;;18.58;8.98;;;;;;;-142.75;99.39;77753.53;5031648;28;20104;-68
2021/10/17 08:12:18;;;;;;;17.27;9.47;;;;;;;-142.75;100.00;77743.69;5031499;28;20021;-68
2021/10/17 08:14:43;;;;;;;16.92;8.48;;;;;;;-142.75;100.00;77737.78;5031039;28;20288;-67
2021/10/17 08:17:08;;;;;;;20.73;9.60;;;;;;;-142.75;100.00;77727.94;5031407;28;20072;-68
2021/10/17 08:19:33;;;;;;;18.17;9.68;;;;;;;-142.75;99.98;77722.00;5031092;28;20271;-67
2021/10/17 08:21:59;;;;;;;18.47;9.13;;;;;;;-142.75;100.00;77712.16;5031275;28;20379;-68
2021/10/17 08:24:24;;;;;;;17.20;9.70;;;;;;;-142.75;99.37;77714.13;5030954;28;20260;-68
2021/10/17 08:26:50;;;;;;;20.00;9.18;;;;;;;-142.75;99.14;77692.47;5030093;28;20766;-67
2021/10/17 08:29:15;;;;;;;17.65;8.88;;;;;;;-142.75;100.00;77678.69;5021876;28;20049;-68
2021/10/17 08:31:40;;;;;;;23.30;9.90;;;;;;;-142.75;100.00;77668.84;5011477;28;20034;-67
2021/10/17 08:34:05;;;;;;;23.93;10.13;;;;;;;-142.75;100.00;77670.81;5014875;28;20049;-68
2021/10/17 08:36:31;;;;;;;20.52;9.65;;;;;;;-142.75;99.18;77668.84;5031095;28;20299;-68
2021/10/17 08:38:56;;;;;;;22.02;10.00;;;;;;;-142.75;97.58;77645.22;5024809;28;20025;-68
2021/10/17 08:41:21;;;;;;;22.55;9.55;;;;;;;-142.75;97.62;77629.47;5010123;28;20416;-68
2021/10/17 08:43:47;;;;;;;22.75;9.38;;;;;;;-142.75;96.52;77625.53;5011106;28;20026;-68
2021/10/17 08:46:12;;;;;;;21.10;9.27;;;;;;;-142.75;94.51;77615.69;5011298;28;20030;-69
2021/10/17 08:48:38;;;;;;;22.70;8.93;;;;;;;-142.75;94.59;77592.06;5011138;28;20172;-68
2021/10/17 08:51:06;;;;;;;22.58;9.25;;;;;;;-142.75;93.82;77570.41;5011102;28;20379;-68
2021/10/17 08:53:31;;;;;;;25.65;10.30;;;;;;;-142.75;92.96;77546.78;5011106;28;20503;-68
2021/10/17 08:55:57;;;;;;;22.92;9.55;;;;;;;-142.75;90.23;77533.00;5010726;28;20033;-68
2021/10/17 08:58:22;;;;;;;20.83;10.02;;;;;;;-142.75;89.69;77527.09;5011163;28;20040;-67
2021/10/17 09:00:47;;;;;;;18.35;9.13;;;;;;;-142.75;89.53;77505.44;5011218;28;20020;-68
2021/10/17 09:03:13;;;;;;;20.33;8.77;;;;;;;-142.75;89.65;77501.50;5030449;28;20116;-68
2021/10/17 09:05:43;;;;;;;18.40;8.30;;;;;;;-142.75;87.21;77491.66;5030642;28;20060;-67
2021/10/17 09:08:09;;;;;;;16.83;9.05;;;;;;;-142.75;86.59;77499.53;5031197;28;20021;-68
2021/10/17 09:10:36;;;;;;;16.95;8.73;;;;;;;-142.75;85.96;77499.53;5033470;28;20029;-69
2021/10/17 09:13:11;;;;;;;20.05;8.82;;;;;;;-142.75;85.72;77479.84;5030431;28;20026;-68
2021/10/17 09:15:37;;;;;;;15.82;8.48;;;;;;;-142.75;84.17;77485.75;5030442;28;20033;-69
2021/10/17 09:18:22;;;;;;;17.38;9.02;;;;;;;-142.75;83.16;77479.84;5029786;28;20029;-68
2021/10/17 09:20:47;;;;;;;20.05;8.32;;;;;;;-142.75;82.44;77475.91;5030881;28;20112;-67
2021/10/17 09:23:29;;;;;;;17.53;8.97;;;;;;;-142.75;81.69;77460.13;5030801;28;20113;-67
2021/10/17 09:25:58;;;;;;;18.60;8.45;;;;;;;-142.75;81.17;77448.34;5030706;28;20378;-68
2021/10/17 09:28:30;;;;;;;21.38;8.40;;;;;;;-142.75;81.43;77428.63;5030585;28;20035;-68
2021/10/17 09:31:03;;;;;;;17.52;8.00;;;;;;;-142.75;79.79;77456.22;5030470;28;20044;-67
2021/10/17 09:33:29;;;;;;;14.48;8.13;;;;;;;-142.75;80.77;77468.03;5030717;28;20108;-68
2021/10/17 09:35:54;;;;;;;;;;;;;;;-142.75;81.48;77493.63;5030006;28;20034;-68
2021/10/17 09:38:23;;;;;;;21.75;9.38;;;;;;;-142.75;82.68;77475.91;5029592;28;20005;-68
2021/10/17 09:40:49;;;;;;;28.48;10.32;;;;;;;-142.75;81.27;77491.66;5020367;28;20030;-68
2021/10/17 09:43:23;;;;;;;17.73;8.18;;;;;;;-142.75;82.96;77495.59;5009430;28;20032;-67
2021/10/17 09:45:49;;;;;;;19.80;9.50;;;;;;;-142.75;83.68;77487.72;5009523;28;20054;-68
2021/10/17 09:48:28;;;;;;;18.20;8.73;;;;;;;-142.75;83.17;77485.75;5009325;28;20057;-68
2021/10/17 09:51:05;;;;;;;17.10;9.35;;;;;;;-142.75;81.98;77511.34;5009545;28;20034;-68
2021/10/17 09:53:40;;;;;;;19.17;8.88;;;;;;;-142.75;83.30;77519.22;5009541;28;20559;-67
2021/10/17 09:56:06;;;;;;;21.20;9.15;;;;;;;-142.75;83.91;77529.06;5009315;28;20487;-69
2021/10/17 09:58:32;;;;;;;18.77;9.40;;;;;;;-142.75;83.61;77513.31;5009662;28;20503;-68
2021/10/17 10:00:58;;;;;;;20.02;9.80;;;;;;;-142.75;84.31;77483.78;5009099;28;20084;-69
2021/10/17 10:03:24;;;;;;;;;;;;;;;-142.75;83.57;77436.50;5009885;28;20034;-68
2021/10/17 10:05:49;;;;;;;19.92;9.55;;;;;;;-142.75;80.86;77383.34;5009376;28;19921;-68
2021/10/17 10:08:21;;;;;;;18.13;8.57;;;;;;;-142.75;77.51;77363.66;5012611;28;20088;-68
2021/10/17 10:10:47;;;;;;;17.63;8.55;;;;;;;-142.75;76.54;77314.44;5014236;28;20487;-69
2021/10/17 10:13:14;;;;;;;;;;;;;;;-142.75;75.52;77231.75;5014104;28;20496;-68
2021/10/17 10:15:40;;;;;;;;;;;;;;;-142.75;73.24;77233.72;5012929;28;19928;-68
2021/10/17 10:18:09;;;;;;;17.88;8.77;;;;;;;-142.75;72.10;77219.94;5013858;28;19914;-68
2021/10/17 10:20:34;;;;;;;21.05;9.27;;;;;;;-142.75;72.82;77269.16;5013857;28;20033;-68
2021/10/17 10:23:00;;;;;;;16.00;8.52;;;;;;;-142.75;72.57;77267.19;5037854;28;20029;-68
2021/10/17 10:25:26;;;;;;;;;;;;;;;-142.75;74.05;77249.47;5033810;28;20021;-68
2021/10/17 10:27:52;;;;;;;16.45;8.45;;;;;;;-142.75;72.83;77267.19;5033255;28;19979;-69
2021/10/17 10:30:20;;;;;;;;;;;;;;;-142.75;72.48;77279.00;5033951;28;20033;-68
2021/10/17 10:33:09;;;;;;;20.33;9.02;;;;;;;-142.75;72.90;77269.16;5033344;28;20014;-68
2021/10/17 10:35:35;;;;;;;18.70;8.80;;;;;;;-142.75;72.89;77269.16;5032975;28;20075;-68
2021/10/17 10:38:00;;;;;;;21.42;9.30;;;;;;;-142.75;73.29;77253.41;5033319;28;20021;-68
2021/10/17 10:40:25;;;;;;;;;;;;;;;-142.75;73.28;77273.09;5015444;28;20091;-68
2021/10/17 10:42:52;;;;;;;15.80;9.13;;;;;;;-142.75;74.21;77255.38;5013416;28;20011;-68
2021/10/17 10:45:34;;;;;;;17.02;9.13;;;;;;;-142.75;73.04;77259.31;5013095;28;20018;-68
2021/10/17 10:48:06;;;;;;;18.92;9.60;;;;;;;-142.75;75.48;77221.91;5013468;28;20033;-68
2021/10/17 10:50:37;;;;;;;17.25;9.90;;;;;;;-142.75;73.62;77212.06;5013215;28;20506;-67
2021/10/17 10:53:03;;;;;;;18.33;8.98;;;;;;;-142.75;72.87;77214.03;5030128;28;20075;-68
2021/10/17 10:55:50;;;;;;;23.67;10.82;;;;;;;-142.75;72.38;77208.13;5032948;28;20022;-68
2021/10/17 10:58:32;;;;;;;16.48;9.98;;;;;;;-142.75;73.19;77210.09;5033089;28;20030;-68
2021/10/17 11:00:58;;;;;;;24.50;11.57;;;;;;;-142.75;73.01;77225.84;5033093;28;20040;-68
2021/10/17 11:03:26;;;;;;;21.30;11.30;;;;;;;-142.75;73.12;77257.34;5032556;28;21355;-68
2021/10/17 11:06:06;;;;;;;22.38;11.95;;;;;;;-142.75;74.51;77279.00;5032642;28;20486;-68
2021/10/17 11:08:38;;;;;;;22.02;11.10;;;;;;;-142.75;76.50;77265.22;5032877;28;20052;-68